Main page
METAR-TAF:

METAR-TAF

Airports :

Bobo Dioulasso Airport

Bobo-Dioulasso, Burkina Faso

latitude: 11-10N, longitude: 004-19W, elevation: 460 m

Current weather observation

The report was made 45 minutes ago, at 20:00 UTC
Wind 4 kt from the Southwest
Temperature 26°C
Humidity 79%
Pressure 1014 hPa
Visibility 10 km or more
no clouds below 1500 m and no cumulonimbus

METAR: DFOO 222000Z 22004KT CAVOK 26/22 Q1014

Time: 20:45 (20:45 UTC)

Forecast

The report was made 3 hours and 45 minutes ago, at 17:00 UTC
Forecast valid from 22 at 18 UTC to 23 at 18 UTC
Wind 10 kt from the South/Southwest
Visibility 10 km or more
Scattered clouds at a height of 1600 ft
Probability 30% :
Temporary
from 22 at 20 UTC to 23 at 06 UTC
Visibility: 4000 m
Scattered clouds at a height of 1600 ft
Few clouds at a height of 3300 ft, Cumulonimbus.
thunderstorm, rain

TAF: DFOO 221700Z 2218/2318 20010KT 9999 SCT016 PROB30 TEMPO 2220/2306 4000 TSRA SCT016 FEW033CB

Weather observations and forecasts of more than 4000 airports (METAR and TAF reports).

The available stations are represented by yellow and red dots on the map.

Hover mouse over dot to see the name of the station.

Then click to see weather observations and forecasts.

To change the map : click on the green buttons with a black cross to zoom in, on the green button with a dash to zoom out, or on the green arrows for adjacent maps.


METAR-TAF: